Time;durP1;ratioP1;P1;durP2;ratioP2;P2;SDS_P1;SDS_P2;PMS_P1;PMS_P2;Temp;Humidity;BMP_temperature;BMP_pressure;BME280_temperature;BME280_humidity;BME280_pressure;Samples;Min_cycle;Max_cycle;Signal;HPM_P1;HPM_P2
2022/05/02 00:00:07;;;;;;;;;;;14.80;84.10;;;;;;5054247;28;19917;-77
2022/05/02 00:02:52;;;;;;;;;;;14.70;84.40;;;;;;5053723;28;20046;-76
2022/05/02 00:05:18;;;;;;;;;;;14.60;84.70;;;;;;5053219;28;19909;-77
2022/05/02 00:07:43;;;;;;;;;;;14.70;84.90;;;;;;5053441;28;19909;-77
2022/05/02 00:10:10;;;;;;;;;;;14.70;84.50;;;;;;5053192;28;19954;-76
2022/05/02 00:12:35;;;;;;;;;;;14.70;84.60;;;;;;5051245;28;20277;-76
2022/05/02 00:15:02;;;;;;;;;;;14.70;84.60;;;;;;5053431;28;19917;-76
2022/05/02 00:20:11;;;;;;;;;;;14.80;83.80;;;;;;5052816;28;19923;-77
2022/05/02 00:22:37;;;;;;;;;;;14.80;84.00;;;;;;5052596;28;19909;-77
2022/05/02 00:25:04;;;;;;;;;;;14.80;83.80;;;;;;5051132;28;19915;-76
2022/05/02 00:27:30;;;;;;;;;;;14.80;83.90;;;;;;5051912;28;20266;-77
2022/05/02 00:29:55;;;;;;;;;;;14.70;84.10;;;;;;5052825;28;20362;-77
2022/05/02 00:32:21;;;;;;;;;;;14.70;83.90;;;;;;5052867;28;19960;-76
2022/05/02 00:34:53;;;;;;;;;;;14.70;83.90;;;;;;5052617;28;19916;-76
2022/05/02 00:37:19;;;;;;;;;;;14.70;84.10;;;;;;5052447;28;19965;-76
2022/05/02 00:39:46;;;;;;;;;;;14.80;82.60;;;;;;5052421;28;19909;-76
2022/05/02 00:42:12;;;;;;;;;;;14.90;82.80;;;;;;5052391;28;20434;-76
2022/05/02 00:44:53;;;;;;;;;;;14.90;82.00;;;;;;5052669;28;19920;-77
2022/05/02 00:47:21;;;;;;;;;;;14.80;82.60;;;;;;5052485;28;19971;-76
2022/05/02 00:49:51;;;;;;;;;;;14.80;82.60;;;;;;5050573;28;19960;-76
2022/05/02 00:52:17;;;;;;;;;;;14.70;83.10;;;;;;5052050;28;19966;-76
2022/05/02 00:54:43;;;;;;;;;;;14.60;83.70;;;;;;5050468;28;19908;-76
2022/05/02 00:57:14;;;;;;;;;;;14.60;83.40;;;;;;5050437;28;19920;-76
2022/05/02 00:59:40;;;;;;;;;;;14.80;82.50;;;;;;5051846;28;19909;-75
2022/05/02 01:02:06;;;;;;;;;;;14.80;82.00;;;;;;5052230;28;20098;-76
2022/05/02 01:04:32;;;;;;;;;;;14.80;82.60;;;;;;5051799;28;19913;-76
2022/05/02 01:07:19;;;;;;;;;;;14.80;83.00;;;;;;5051732;28;20325;-75
2022/05/02 01:09:51;;;;;;;;;;;14.80;83.40;;;;;;5051858;28;20063;-75
2022/05/02 01:12:18;;;;;;;;;;;14.80;84.00;;;;;;5051834;28;19924;-75
2022/05/02 01:14:44;;;;;;;;;;;14.60;84.70;;;;;;5051473;28;20295;-75
2022/05/02 01:17:10;;;;;;;;;;;14.60;84.90;;;;;;5050108;28;19920;-76
2022/05/02 01:19:36;;;;;;;;;;;14.50;85.50;;;;;;5051615;28;19908;-74
2022/05/02 01:22:03;;;;;;;;;;;14.40;85.70;;;;;;5051460;28;20013;-75
2022/05/02 01:24:39;;;;;;;;;;;14.40;85.00;;;;;;5051535;28;20316;-75
2022/05/02 01:27:07;;;;;;;;;;;14.40;85.00;;;;;;5051345;28;19913;-74
2022/05/02 01:29:34;;;;;;;;;;;14.40;85.30;;;;;;5050663;28;19909;-77
2022/05/02 01:32:01;;;;;;;;;;;14.30;85.30;;;;;;5051073;28;19920;-77
2022/05/02 01:34:27;;;;;;;;;;;14.40;85.10;;;;;;5051308;28;19952;-77
2022/05/02 01:36:53;;;;;;;;;;;14.50;84.90;;;;;;5051072;28;19925;-77
2022/05/02 01:39:18;;;;;;;;;;;14.40;84.70;;;;;;5049775;28;20379;-77
2022/05/02 01:41:44;;;;;;;;;;;14.50;84.30;;;;;;5051085;28;19909;-76
2022/05/02 01:44:10;;;;;;;;;;;14.50;83.20;;;;;;5051304;28;20313;-77
2022/05/02 01:46:36;;;;;;;;;;;14.60;82.60;;;;;;5049856;28;19909;-77
2022/05/02 01:49:02;;;;;;;;;;;14.60;83.10;;;;;;5051250;28;19920;-75
2022/05/02 01:51:28;;;;;;;;;;;14.50;83.40;;;;;;5051193;28;19921;-76
2022/05/02 01:53:54;;;;;;;;;;;14.60;83.30;;;;;;5051394;28;19913;-76
2022/05/02 01:56:19;;;;;;;;;;;14.50;82.80;;;;;;5051057;28;20333;-76
2022/05/02 01:58:51;;;;;;;;;;;14.50;82.80;;;;;;5051072;28;19952;-76
2022/05/02 02:01:17;;;;;;;;;;;14.40;82.70;;;;;;5051222;28;19909;-77
2022/05/02 02:03:43;;;;;;;;;;;14.40;82.40;;;;;;5051063;28;19995;-76
2022/05/02 02:06:09;;;;;;;;;;;14.40;82.50;;;;;;5051055;28;19959;-74
2022/05/02 02:08:35;;;;;;;;;;;14.40;82.00;;;;;;5051217;28;19908;-77
2022/05/02 02:11:05;;;;;;;;;;;14.40;82.40;;;;;;5050887;28;19962;-76
2022/05/02 02:13:31;;;;;;;;;;;14.40;82.40;;;;;;5050825;28;19963;-77
2022/05/02 02:15:57;;;;;;;;;;;14.40;82.20;;;;;;5050724;28;19920;-76
2022/05/02 02:18:23;;;;;;;;;;;14.40;81.70;;;;;;5050830;28;20354;-77
2022/05/02 02:20:51;;;;;;;;;;;14.40;82.80;;;;;;5050995;28;19967;-76
2022/05/02 02:23:17;;;;;;;;;;;14.30;84.00;;;;;;5050590;28;19927;-76
2022/05/02 02:25:43;;;;;;;;;;;14.30;84.60;;;;;;5050672;28;19912;-76
2022/05/02 02:28:09;;;;;;;;;;;14.20;84.90;;;;;;5050768;28;20365;-76
2022/05/02 02:30:35;;;;;;;;;;;14.20;85.30;;;;;;5050666;28;19982;-75
2022/05/02 02:33:01;;;;;;;;;;;14.10;85.60;;;;;;5050491;28;20277;-76
2022/05/02 02:35:28;;;;;;;;;;;14.10;85.60;;;;;;5049203;28;19909;-76
2022/05/02 02:37:54;;;;;;;;;;;14.10;85.50;;;;;;5050550;28;20268;-76
2022/05/02 02:40:20;;;;;;;;;;;14.10;84.80;;;;;;5048717;28;19909;-77
2022/05/02 02:42:46;;;;;;;;;;;14.10;84.30;;;;;;5048542;28;19909;-76
2022/05/02 02:45:12;;;;;;;;;;;14.20;83.90;;;;;;5049931;28;19941;-77
2022/05/02 02:47:38;;;;;;;;;;;14.30;84.10;;;;;;5049787;28;19917;-76
2022/05/02 02:50:05;;;;;;;;;;;14.20;84.20;;;;;;5048317;28;19916;-75
2022/05/02 02:52:30;;;;;;;;;;;14.10;84.50;;;;;;5049845;28;19921;-77
2022/05/02 02:54:56;;;;;;;;;;;14.20;84.70;;;;;;5050156;28;20099;-75
2022/05/02 02:57:22;;;;;;;;;;;14.10;84.60;;;;;;5050749;28;19919;-75
2022/05/02 02:59:48;;;;;;;;;;;14.00;84.80;;;;;;5051133;28;19908;-76
2022/05/02 03:02:14;;;;;;;;;;;14.00;85.00;;;;;;5050871;28;20022;-76
2022/05/02 03:07:36;;;;;;;;;;;14.00;84.40;;;;;;5051091;28;19955;-77
2022/05/02 03:10:02;;;;;;;;;;;14.00;83.30;;;;;;5049491;28;19917;-73
2022/05/02 03:12:28;;;;;;;;;;;14.10;83.40;;;;;;5051167;28;19942;-77
2022/05/02 03:14:54;;;;;;;;;;;14.10;82.70;;;;;;5050967;28;20382;-75
2022/05/02 03:17:20;;;;;;;;;;;14.10;82.90;;;;;;5051028;28;19916;-77
2022/05/02 03:19:46;;;;;;;;;;;14.00;83.30;;;;;;5049201;28;19909;-74
2022/05/02 03:22:12;;;;;;;;;;;14.00;83.70;;;;;;5050569;28;19913;-74
2022/05/02 03:24:53;;;;;;;;;;;13.90;83.20;;;;;;5050082;28;20257;-74
2022/05/02 03:27:19;;;;;;;;;;;13.90;83.00;;;;;;5051375;28;20348;-75
2022/05/02 03:29:45;;;;;;;;;;;13.90;83.30;;;;;;5051809;28;19909;-76
2022/05/02 03:32:11;;;;;;;;;;;13.90;83.20;;;;;;5051644;28;19917;-75
2022/05/02 03:34:36;;;;;;;;;;;13.90;83.10;;;;;;5051525;28;20297;-74
2022/05/02 03:37:02;;;;;;;;;;;13.90;83.30;;;;;;5051104;28;19924;-74
2022/05/02 03:39:28;;;;;;;;;;;13.90;83.30;;;;;;5051183;28;19909;-75
2022/05/02 03:41:54;;;;;;;;;;;13.90;82.90;;;;;;5051160;28;19917;-76
2022/05/02 03:44:20;;;;;;;;;;;14.00;83.00;;;;;;5051127;28;19913;-76
2022/05/02 03:46:46;;;;;;;;;;;13.90;83.20;;;;;;5051027;28;19909;-75
2022/05/02 03:49:12;;;;;;;;;;;13.90;83.30;;;;;;5051093;28;19940;-76
2022/05/02 03:51:37;;;;;;;;;;;13.90;83.80;;;;;;5052297;28;19916;-74
2022/05/02 03:54:03;;;;;;;;;;;13.90;83.70;;;;;;5055059;28;19909;-76
2022/05/02 03:56:29;;;;;;;;;;;13.90;83.90;;;;;;5054595;28;20284;-76
2022/05/02 03:58:55;;;;;;;;;;;13.90;83.70;;;;;;5054545;28;19908;-75
2022/05/02 04:01:21;;;;;;;;;;;13.80;83.70;;;;;;5052953;28;19999;-76
2022/05/02 04:03:47;;;;;;;;;;;13.90;84.00;;;;;;5054381;28;19969;-75
2022/05/02 04:06:13;;;;;;;;;;;13.80;84.00;;;;;;5054233;28;20269;-74
2022/05/02 04:08:39;;;;;;;;;;;13.80;83.90;;;;;;5052660;28;20421;-74
2022/05/02 04:11:05;;;;;;;;;;;13.70;84.10;;;;;;5053992;28;20015;-75
2022/05/02 04:13:30;;;;;;;;;;;13.70;84.40;;;;;;5054327;28;19927;-76
2022/05/02 04:15:56;;;;;;;;;;;13.70;84.10;;;;;;5054461;28;20265;-77
2022/05/02 04:18:22;;;;;;;;;;;13.80;83.70;;;;;;5055712;28;19920;-76
2022/05/02 04:20:48;;;;;;;;;;;13.80;83.40;;;;;;5055273;28;19909;-77
2022/05/02 04:23:13;;;;;;;;;;;13.80;83.00;;;;;;5055375;28;19971;-77
2022/05/02 04:25:39;;;;;;;;;;;13.80;82.80;;;;;;5055397;28;20229;-76
2022/05/02 04:28:07;;;;;;;;;;;13.90;82.70;;;;;;5055504;28;20032;-77
2022/05/02 04:30:33;;;;;;;;;;;13.90;82.80;;;;;;5055143;28;19958;-76
2022/05/02 04:32:58;;;;;;;;;;;13.90;82.80;;;;;;5055393;28;19920;-77
2022/05/02 04:35:37;;;;;;;;;;;14.00;82.80;;;;;;5055198;28;19909;-77
2022/05/02 04:38:03;;;;;;;;;;;14.00;82.70;;;;;;5054806;28;20399;-76
2022/05/02 04:40:32;;;;;;;;;;;14.20;82.40;;;;;;5054171;28;20508;-75
2022/05/02 04:42:58;;;;;;;;;;;14.20;82.40;;;;;;5053418;28;19916;-76
2022/05/02 04:45:24;;;;;;;;;;;14.40;82.20;;;;;;5054996;28;19909;-76
2022/05/02 04:47:50;;;;;;;;;;;14.40;82.20;;;;;;5053387;28;20387;-76
2022/05/02 04:50:16;;;;;;;;;;;14.40;82.30;;;;;;5054545;28;19963;-76
2022/05/02 04:52:42;;;;;;;;;;;14.50;82.30;;;;;;5055354;28;20149;-76
2022/05/02 04:55:08;;;;;;;;;;;14.50;82.20;;;;;;5054511;28;19909;-76
2022/05/02 04:57:34;;;;;;;;;;;14.50;82.30;;;;;;5054773;28;19915;-76
2022/05/02 04:59:59;;;;;;;;;;;14.50;82.30;;;;;;5054324;28;20008;-77
2022/05/02 05:02:25;;;;;;;;;;;14.60;82.20;;;;;;5054662;28;19909;-77
2022/05/02 05:04:51;;;;;;;;;;;14.60;81.90;;;;;;5054385;28;19909;-77
2022/05/02 05:07:23;;;;;;;;;;;14.70;82.10;;;;;;5054670;28;19909;-76
2022/05/02 05:09:49;;;;;;;;;;;14.80;81.90;;;;;;5054847;28;20103;-77
2022/05/02 05:12:20;;;;;;;;;;;15.10;82.00;;;;;;5054600;28;20374;-76
2022/05/02 05:17:46;;;;;;;;;;;19.00;75.10;;;;;;5054554;28;20015;-76
2022/05/02 05:20:27;;;;;;;;;;;21.60;69.20;;;;;;5055124;28;19909;-78
2022/05/02 05:23:10;;;;;;;;;;;23.70;63.90;;;;;;5054775;28;20014;-78
2022/05/02 05:25:36;;;;;;;;;;;25.50;61.00;;;;;;5054338;28;20001;-77
2022/05/02 05:28:05;;;;;;;;;;;26.00;58.80;;;;;;5054267;28;19959;-78
2022/05/02 05:30:36;;;;;;;;;;;25.90;60.60;;;;;;5052943;28;19932;-78
2022/05/02 05:33:12;;;;;;;;;;;25.90;59.20;;;;;;5053650;28;19990;-78
2022/05/02 05:35:45;;;;;;;;;;;25.90;59.00;;;;;;5053908;28;19916;-78
2022/05/02 05:38:20;;;;;;;;;;;27.00;57.30;;;;;;5051992;28;19936;-75
2022/05/02 05:40:49;;;;;;;;;;;26.90;55.90;;;;;;5050426;28;20305;-78
2022/05/02 05:43:23;;;;;;;;;;;26.20;57.50;;;;;;5053462;28;19909;-78
2022/05/02 05:46:02;;;;;;;;;;;27.00;56.50;;;;;;5053650;28;19909;-78
2022/05/02 05:48:28;;;;;;;;;;;27.20;55.30;;;;;;5053117;28;20210;-77
2022/05/02 05:51:09;;;;;;;;;;;26.50;56.50;;;;;;5052937;28;19928;-76
2022/05/02 05:53:55;;;;;;;;;;;26.30;56.60;;;;;;5052455;28;20420;-76
2022/05/02 05:56:23;;;;;;;;;;;26.80;57.00;;;;;;5052457;28;19947;-75
2022/05/02 05:58:52;;;;;;;;;;;26.90;56.20;;;;;;5052161;28;19916;-77
2022/05/02 06:01:30;;;;;;;;;;;26.50;56.50;;;;;;5052774;28;20246;-76
2022/05/02 06:04:09;;;;;;;;;;;26.10;57.10;;;;;;5051642;28;19932;-77
2022/05/02 06:06:38;;;;;;;;;;;26.50;56.70;;;;;;5051739;28;20410;-76
2022/05/02 06:09:05;;;;;;;;;;;27.00;55.90;;;;;;5051548;28;19909;-76
2022/05/02 06:11:33;;;;;;;;;;;27.40;56.00;;;;;;5051407;28;19913;-79
2022/05/02 06:13:59;;;;;;;;;;;27.50;55.70;;;;;;5051698;28;19916;-77
2022/05/02 06:19:13;;;;;;;;;;;27.70;55.20;;;;;;5032886;28;19916;-78
2022/05/02 06:21:40;;;;;;;;;;;28.80;54.50;;;;;;5032908;28;20254;-78
2022/05/02 06:24:09;;;;;;;;;;;30.50;52.80;;;;;;5033014;28;20055;-80
2022/05/02 06:26:37;;;;;;;;;;;30.70;52.20;;;;;;5032906;28;19944;-80
2022/05/02 06:29:03;;;;;;;;;;;32.50;50.90;;;;;;5015319;28;20292;-80
2022/05/02 06:31:29;;;;;;;;;;;33.60;49.70;;;;;;5033070;28;20343;-80
2022/05/02 06:33:56;;;;;;;;;;;34.30;48.50;;;;;;5032518;28;19913;-80
2022/05/02 06:36:47;;;;;;;;;;;35.50;47.30;;;;;;5032750;28;19963;-81
2022/05/02 06:39:32;;;;;;;;;;;36.30;44.80;;;;;;5032917;28;19925;-79
2022/05/02 06:42:32;;;;;;;;;;;36.70;44.90;;;;;;5032542;28;19933;-80
2022/05/02 06:45:21;;;;;;;;;;;37.20;44.10;;;;;;5001149;28;19992;-80
2022/05/02 06:47:56;;;;;;;;;;;35.30;42.40;;;;;;5031514;28;19916;-80
2022/05/02 06:50:25;;;;;;;;;;;34.70;42.40;;;;;;5034016;28;19987;-79
2022/05/02 06:52:58;;;;;;;;;;;33.50;42.40;;;;;;5051089;28;20035;-79
2022/05/02 06:55:30;;;;;;;;;;;33.80;43.40;;;;;;5052969;28;19909;-79
2022/05/02 06:58:48;;;;;;;;;;;34.40;43.10;;;;;;5051280;28;19909;-80
2022/05/02 07:01:29;;;;;;;;;;;33.80;43.60;;;;;;5026715;28;19908;-80
2022/05/02 07:03:54;;;;;;;;;;;32.30;46.20;;;;;;5051006;28;19916;-80
2022/05/02 07:06:42;;;;;;;;;;;32.10;47.10;;;;;;5052860;28;19909;-81
2022/05/02 07:09:09;;;;;;;;;;;33.20;46.30;;;;;;5052437;28;19970;-81
2022/05/02 07:11:52;;;;;;;;;;;34.00;45.60;;;;;;5052388;28;19939;-79
2022/05/02 07:14:37;;;;;;;;;;;34.40;45.30;;;;;;5052393;28;19915;-81
2022/05/02 07:17:05;;;;;;;;;;;34.30;45.30;;;;;;5052759;28;19917;-81
2022/05/02 07:20:06;;;;;;;;;;;34.50;44.80;;;;;;5051893;28;19913;-80
2022/05/02 07:22:34;;;;;;;;;;;33.90;45.10;;;;;;5010059;28;19910;-80
2022/05/02 07:25:11;;;;;;;;;;;32.70;46.50;;;;;;5009740;28;19910;-81
2022/05/02 07:27:40;;;;;;;;;;;31.70;47.50;;;;;;5012917;28;19928;-80
2022/05/02 07:30:06;;;;;;;;;;;31.10;48.90;;;;;;5013360;28;19910;-79
2022/05/02 07:32:32;;;;;;;;;;;30.60;51.10;;;;;;5013214;28;19917;-80
2022/05/02 07:34:59;;;;;;;;;;;30.00;52.40;;;;;;5013346;28;20035;-84
2022/05/02 07:37:25;;;;;;;;;;;29.20;53.40;;;;;;5013083;28;19947;-69
2022/05/02 07:39:51;;;;;;;;;;;29.00;54.90;;;;;;5012998;28;19914;-69
2022/05/02 07:42:20;;;;;;;;;;;28.40;56.10;;;;;;5012950;28;19963;-70
2022/05/02 07:44:51;;;;;;;;;;;28.10;56.80;;;;;;5013260;28;19956;-70
2022/05/02 07:47:21;;;;;;;;;;;27.90;59.00;;;;;;5012575;28;20004;-71
2022/05/02 07:49:50;;;;;;;;;;;27.20;62.10;;;;;;5012403;28;19917;-71
2022/05/02 07:52:21;;;;;;;;;;;26.90;64.50;;;;;;5011758;28;19952;-69
2022/05/02 07:54:48;;;;;;;;;;;26.60;66.20;;;;;;5011585;28;19956;-70
2022/05/02 07:57:14;;;;;;;;;;;26.30;68.20;;;;;;5024057;28;19921;-68
2022/05/02 07:59:41;;;;;;;;;;;26.10;69.50;;;;;;5033745;28;19963;-70
2022/05/02 08:02:07;;;;;;;;;;;26.00;69.60;;;;;;5033250;28;19949;-70
2022/05/02 08:04:34;;;;;;;;;;;26.30;70.50;;;;;;5033429;28;20018;-71
2022/05/02 08:07:11;;;;;;;;;;;26.10;70.00;;;;;;5033514;28;19909;-72
2022/05/02 08:10:09;;;;;;;;;;;26.20;71.00;;;;;;5033433;28;19921;-71
2022/05/02 08:12:42;;;;;;;;;;;26.00;71.70;;;;;;4975171;28;19918;-71
2022/05/02 08:15:11;;;;;;;;;;;25.50;74.80;;;;;;4991739;28;19910;-73
2022/05/02 08:17:41;;;;;;;;;;;25.00;77.50;;;;;;4992340;28;19910;-71
2022/05/02 08:20:07;;;;;;;;;;;25.00;76.50;;;;;;4993314;28;20000;-73
2022/05/02 08:28:27;;;;;;;;;;;25.00;80.00;;;;;;4992878;28;19956;-70
2022/05/02 08:31:08;;;;;;;;;;;25.20;79.60;;;;;;4976629;28;19945;-70
2022/05/02 08:33:35;;;;;;;;;;;25.50;79.90;;;;;;4992617;28;19968;-72
2022/05/02 08:36:03;;;;;;;;;;;25.30;80.00;;;;;;4992226;28;19961;-72
2022/05/02 08:38:41;;;;;;;;;;;25.30;80.20;;;;;;4992469;28;20282;-72
2022/05/02 08:41:45;;;;;;;;;;;25.20;81.40;;;;;;4993008;28;20315;-72
2022/05/02 08:44:23;;;;;;;;;;;24.90;81.50;;;;;;4954050;29;19918;-72
2022/05/02 08:47:07;;;;;;;;;;;25.00;81.30;;;;;;4937747;29;20343;-73
2022/05/02 08:49:41;;;;;;;;;;;25.10;81.50;;;;;;4972922;28;19910;-73
2022/05/02 08:52:08;;;;;;;;;;;25.00;81.90;;;;;;4972251;28;19922;-74
2022/05/02 08:54:33;;;;;;;;;;;24.60;83.80;;;;;;4972488;28;20009;-72
2022/05/02 08:57:14;;;;;;;;;;;24.70;84.10;;;;;;4970100;28;20001;-71
2022/05/02 08:59:54;;;;;;;;;;;24.60;84.90;;;;;;4971452;28;19951;-72
2022/05/02 09:02:32;;;;;;;;;;;24.00;86.30;;;;;;4972384;28;19917;-70
2022/05/02 09:05:17;;;;;;;;;;;24.10;86.90;;;;;;4959458;28;19914;-70
2022/05/02 09:08:01;;;;;;;;;;;24.40;85.60;;;;;;4961432;28;19914;-69
2022/05/02 09:10:35;;;;;;;;;;;24.20;86.70;;;;;;4972202;28;20006;-70
2022/05/02 09:13:22;;;;;;;;;;;24.40;86.00;;;;;;4972607;28;19966;-73
2022/05/02 09:15:53;;;;;;;;;;;24.50;86.30;;;;;;5014860;28;20285;-72
2022/05/02 09:18:34;;;;;;;;;;;24.50;86.60;;;;;;5032350;28;19956;-72
2022/05/02 09:21:06;;;;;;;;;;;24.60;86.00;;;;;;5032653;28;20043;-72
2022/05/02 09:23:33;;;;;;;;;;;24.50;85.20;;;;;;5024857;28;19909;-73
2022/05/02 09:26:10;;;;;;;;;;;24.50;86.10;;;;;;5023209;28;19935;-69
2022/05/02 09:28:44;;;;;;;;;;;24.40;85.90;;;;;;5015106;28;19909;-73
2022/05/02 09:31:16;;;;;;;;;;;24.50;86.50;;;;;;5011407;28;19979;-72
2022/05/02 09:34:00;;;;;;;;;;;24.50;86.70;;;;;;5013116;28;20279;-72
2022/05/02 09:36:35;;;;;;;;;;;24.50;86.70;;;;;;5016161;28;19999;-72
2022/05/02 09:39:00;;;;;;;;;;;24.40;87.20;;;;;;5032588;28;19957;-73
2022/05/02 09:41:26;;;;;;;;;;;24.30;88.00;;;;;;5032651;28;19955;-73
2022/05/02 09:49:37;;;;;;;;;;;24.40;86.50;;;;;;5032222;28;19927;-74
2022/05/02 09:52:11;;;;;;;;;;;24.10;88.70;;;;;;5032167;28;20016;-73
2022/05/02 09:57:43;;;;;;;;;;;23.60;89.60;;;;;;5032130;28;19936;-71
2022/05/02 10:03:17;;;;;;;;;;;23.40;90.00;;;;;;5032400;28;20027;-73
2022/05/02 10:05:49;;;;;;;;;;;23.30;90.10;;;;;;5032208;28;20401;-72
2022/05/02 10:08:41;;;;;;;;;;;23.30;90.10;;;;;;5031833;28;19927;-74
2022/05/02 10:11:12;;;;;;;;;;;23.50;87.80;;;;;;5027868;28;19968;-73
2022/05/02 10:13:56;;;;;;;;;;;23.70;87.10;;;;;;5031766;28;19913;-72
2022/05/02 10:16:33;;;;;;;;;;;23.70;86.60;;;;;;5013768;28;20095;-74
2022/05/02 10:19:02;;;;;;;;;;;23.70;86.70;;;;;;5031369;28;19913;-73
2022/05/02 10:21:47;;;;;;;;;;;23.60;87.70;;;;;;5031350;28;19910;-74
2022/05/02 10:24:19;;;;;;;;;;;23.70;88.30;;;;;;5031487;28;19909;-73
2022/05/02 10:26:50;;;;;;;;;;;23.80;86.50;;;;;;5013444;28;19945;-72
2022/05/02 10:29:41;;;;;;;;;;;23.80;86.90;;;;;;5031060;28;20265;-71
2022/05/02 10:32:22;;;;;;;;;;;23.70;87.50;;;;;;5031593;28;20015;-70
2022/05/02 10:34:51;;;;;;;;;;;23.50;89.40;;;;;;5031589;28;19963;-72
2022/05/02 10:37:18;;;;;;;;;;;23.50;90.30;;;;;;5031152;28;19987;-71
2022/05/02 10:39:48;;;;;;;;;;;23.50;89.50;;;;;;5031381;28;19947;-72
2022/05/02 10:42:18;;;;;;;;;;;23.20;89.00;;;;;;5030641;28;19913;-73
2022/05/02 10:44:50;;;;;;;;;;;23.30;90.70;;;;;;5031205;28;19913;-72
2022/05/02 10:47:18;;;;;;;;;;;23.30;90.80;;;;;;5030914;28;19916;-72
2022/05/02 10:49:59;;;;;;;;;;;23.40;90.50;;;;;;5028765;28;19917;-73
2022/05/02 10:52:35;;;;;;;;;;;23.40;90.00;;;;;;5030369;28;20022;-72
2022/05/02 10:55:07;;;;;;;;;;;23.40;90.40;;;;;;5030972;28;19914;-72
2022/05/02 10:57:40;;;;;;;;;;;23.30;90.60;;;;;;5030906;28;20086;-73
2022/05/02 11:00:09;;;;;;;;;;;23.50;90.30;;;;;;5013208;28;19910;-73
2022/05/02 11:02:53;;;;;;;;;;;23.70;90.40;;;;;;5034134;28;19972;-73
2022/05/02 11:05:26;;;;;;;;;;;23.80;88.30;;;;;;5033721;28;19945;-73
2022/05/02 11:07:55;;;;;;;;;;;23.80;87.90;;;;;;5054031;28;20368;-73
2022/05/02 11:10:40;;;;;;;;;;;23.80;86.90;;;;;;5054773;28;19956;-73
2022/05/02 11:13:11;;;;;;;;;;;23.80;88.20;;;;;;5054178;28;19916;-74
2022/05/02 11:15:54;;;;;;;;;;;23.40;86.10;;;;;;5054167;28;20091;-72
2022/05/02 11:21:12;;;;;;;;;;;23.50;87.30;;;;;;5054839;28;19999;-73
2022/05/02 11:23:55;;;;;;;;;;;23.60;90.00;;;;;;5055522;28;20341;-73
2022/05/02 11:26:37;;;;;;;;;;;23.90;89.60;;;;;;5055266;28;20308;-72
2022/05/02 11:29:07;;;;;;;;;;;24.00;90.00;;;;;;5054634;28;19913;-73
2022/05/02 11:31:40;;;;;;;;;;;24.00;89.00;;;;;;5054571;28;20015;-74
2022/05/02 11:34:19;;;;;;;;;;;24.10;87.70;;;;;;5055093;28;19971;-74
2022/05/02 11:36:51;;;;;;;;;;;24.10;88.00;;;;;;5054660;28;19948;-74
2022/05/02 11:39:23;;;;;;;;;;;24.10;84.80;;;;;;5055004;28;19959;-74
2022/05/02 11:41:50;;;;;;;;;;;24.20;83.80;;;;;;5055137;28;19909;-74
2022/05/02 11:44:16;;;;;;;;;;;24.20;83.80;;;;;;5054783;28;20241;-73
2022/05/02 11:46:54;;;;;;;;;;;24.40;85.00;;;;;;5054394;28;20415;-72
2022/05/02 11:49:29;;;;;;;;;;;24.40;84.00;;;;;;5054084;28;19925;-73
2022/05/02 11:51:58;;;;;;;;;;;24.40;86.50;;;;;;5053977;28;19978;-72
2022/05/02 11:54:27;;;;;;;;;;;24.30;87.60;;;;;;5055427;28;19982;-71
2022/05/02 11:57:06;;;;;;;;;;;24.00;88.80;;;;;;5055225;28;19916;-72
2022/05/02 11:59:52;;;;;;;;;;;23.80;88.60;;;;;;5055172;28;19909;-73
2022/05/02 12:02:24;;;;;;;;;;;24.00;88.00;;;;;;5046965;28;19939;-72
2022/05/02 12:04:52;;;;;;;;;;;23.90;88.80;;;;;;5055311;28;20360;-73
2022/05/02 12:07:21;;;;;;;;;;;24.10;88.00;;;;;;5055099;28;20011;-73
2022/05/02 12:09:47;;;;;;;;;;;24.10;87.90;;;;;;5055475;28;19909;-73
2022/05/02 12:12:13;;;;;;;;;;;23.80;83.50;;;;;;5054337;28;20319;-72
2022/05/02 12:14:39;;;;;;;;;;;24.00;82.60;;;;;;5055039;28;20333;-72
2022/05/02 12:17:12;;;;;;;;;;;24.30;79.80;;;;;;5054699;28;19919;-73
2022/05/02 12:19:39;;;;;;;;;;;24.40;76.10;;;;;;5055139;28;19916;-72
2022/05/02 12:22:16;;;;;;;;;;;24.60;77.90;;;;;;5055521;28;19916;-72
2022/05/02 12:24:43;;;;;;;;;;;24.70;81.40;;;;;;5055327;28;19909;-73
2022/05/02 12:27:11;;;;;;;;;;;24.40;82.30;;;;;;5055370;28;19909;-73
2022/05/02 12:29:38;;;;;;;;;;;24.50;82.30;;;;;;5055348;28;20333;-73
2022/05/02 12:32:08;;;;;;;;;;;24.40;85.90;;;;;;5055628;28;19924;-73
2022/05/02 12:34:38;;;;;;;;;;;24.70;87.30;;;;;;5055023;28;19917;-73
2022/05/02 12:37:23;;;;;;;;;;;24.70;87.90;;;;;;5054805;28;19925;-72
2022/05/02 12:40:09;;;;;;;;;;;24.80;85.40;;;;;;5054914;28;19920;-72
2022/05/02 12:42:44;;;;;;;;;;;24.60;85.10;;;;;;5047419;28;19916;-74
2022/05/02 12:45:14;;;;;;;;;;;24.60;84.30;;;;;;5054580;28;19909;-74
2022/05/02 12:47:41;;;;;;;;;;;24.70;83.20;;;;;;5054581;28;19925;-73
2022/05/02 12:50:17;;;;;;;;;;;24.60;85.00;;;;;;5054886;28;20007;-73
2022/05/02 12:52:54;;;;;;;;;;;24.40;85.80;;;;;;5053937;28;20000;-73
2022/05/02 12:55:21;;;;;;;;;;;24.60;86.10;;;;;;5054282;28;20369;-73
2022/05/02 13:00:32;;;;;;;;;;;24.50;86.90;;;;;;5054410;28;19936;-73
2022/05/02 13:03:02;;;;;;;;;;;24.80;85.00;;;;;;5053808;28;19909;-73
2022/05/02 13:05:32;;;;;;;;;;;24.80;85.20;;;;;;5053963;28;19932;-72
2022/05/02 13:08:07;;;;;;;;;;;24.60;86.40;;;;;;5054021;28;19909;-73
2022/05/02 13:10:33;;;;;;;;;;;24.60;86.70;;;;;;5054530;28;19909;-73
2022/05/02 13:13:12;;;;;;;;;;;24.60;87.50;;;;;;5054085;28;20269;-73
2022/05/02 13:15:39;;;;;;;;;;;24.70;88.30;;;;;;5054206;28;19912;-72
2022/05/02 13:18:06;;;;;;;;;;;24.70;88.00;;;;;;5054137;28;19952;-73
2022/05/02 13:20:32;;;;;;;;;;;24.60;88.30;;;;;;5052856;28;19909;-72
2022/05/02 13:23:00;;;;;;;;;;;24.70;88.00;;;;;;5052507;28;19978;-72
2022/05/02 13:25:52;;;;;;;;;;;24.70;88.00;;;;;;5051869;28;19908;-72
2022/05/02 13:28:26;;;;;;;;;;;24.80;86.60;;;;;;5052106;28;19961;-71
2022/05/02 13:31:02;;;;;;;;;;;24.80;86.50;;;;;;5053038;28;19913;-72
2022/05/02 13:33:32;;;;;;;;;;;24.80;86.80;;;;;;5054348;28;19917;-74
2022/05/02 13:36:05;;;;;;;;;;;24.70;87.10;;;;;;5054263;28;19909;-72
2022/05/02 13:38:35;;;;;;;;;;;24.90;86.70;;;;;;5053791;28;19921;-74
2022/05/02 13:41:01;;;;;;;;;;;24.80;86.00;;;;;;5054184;28;19965;-74
2022/05/02 13:43:40;;;;;;;;;;;24.70;85.40;;;;;;5053542;28;20412;-73
2022/05/02 13:46:30;;;;;;;;;;;24.90;84.20;;;;;;5053452;28;19926;-72
2022/05/02 13:49:03;;;;;;;;;;;25.10;81.60;;;;;;5048101;28;20333;-70
2022/05/02 13:51:33;;;;;;;;;;;25.30;80.30;;;;;;5023368;28;19925;-71
2022/05/02 13:54:04;;;;;;;;;;;25.10;79.70;;;;;;5019788;28;19920;-73
2022/05/02 13:56:33;;;;;;;;;;;25.40;80.10;;;;;;5015228;28;19917;-73
2022/05/02 13:59:17;;;;;;;;;;;25.60;79.70;;;;;;5043136;28;19917;-74
2022/05/02 14:02:01;;;;;;;;;;;25.50;80.70;;;;;;5052844;28;19919;-73
2022/05/02 14:09:47;;;;;;;;;;;24.80;82.00;;;;;;5052658;28;19909;-72
2022/05/02 14:12:22;;;;;;;;;;;24.80;83.40;;;;;;5052553;28;19913;-73
2022/05/02 14:14:54;;;;;;;;;;;24.70;85.20;;;;;;5052875;28;19916;-72
2022/05/02 14:17:26;;;;;;;;;;;24.80;86.50;;;;;;5052094;28;19966;-73
2022/05/02 14:19:53;;;;;;;;;;;25.00;86.00;;;;;;5052612;28;19915;-73
2022/05/02 14:22:39;;;;;;;;;;;25.30;86.40;;;;;;5034573;28;20011;-72
2022/05/02 14:25:14;;;;;;;;;;;25.20;86.50;;;;;;5052428;28;19908;-73
2022/05/02 14:27:40;;;;;;;;;;;25.30;86.80;;;;;;5052385;28;20000;-73
2022/05/02 14:30:06;;;;;;;;;;;25.40;86.00;;;;;;5052835;28;19916;-73
2022/05/02 14:32:44;;;;;;;;;;;25.30;83.90;;;;;;5052165;28;19967;-73
2022/05/02 14:35:20;;;;;;;;;;;25.20;84.40;;;;;;5034010;28;19952;-73
2022/05/02 14:37:47;;;;;;;;;;;24.70;83.60;;;;;;5052199;28;19971;-74
2022/05/02 14:40:13;;;;;;;;;;;24.60;84.90;;;;;;5052347;28;20241;-72
2022/05/02 14:42:40;;;;;;;;;;;24.80;84.50;;;;;;5052351;28;20349;-74
2022/05/02 14:45:06;;;;;;;;;;;24.90;85.60;;;;;;5052053;28;19916;-74
2022/05/02 14:47:32;;;;;;;;;;;25.00;86.30;;;;;;5052058;28;19985;-74
2022/05/02 14:49:59;;;;;;;;;;;25.00;85.80;;;;;;5033871;28;19913;-74
2022/05/02 14:52:26;;;;;;;;;;;24.80;84.50;;;;;;5051483;28;19917;-72
2022/05/02 14:54:54;;;;;;;;;;;24.70;84.30;;;;;;5051774;28;20365;-74
2022/05/02 14:57:21;;;;;;;;;;;24.70;84.30;;;;;;5051621;28;19929;-73
2022/05/02 14:59:50;;;;;;;;;;;24.80;83.10;;;;;;5051598;28;20002;-74
2022/05/02 15:02:18;;;;;;;;;;;24.90;82.00;;;;;;5050803;28;19925;-75
2022/05/02 15:04:45;;;;;;;;;;;25.00;82.70;;;;;;5051254;28;19912;-74
2022/05/02 15:07:14;;;;;;;;;;;25.00;83.60;;;;;;5051356;28;20227;-74
2022/05/02 15:12:45;;;;;;;;;;;25.00;85.70;;;;;;5051150;28;19935;-73
2022/05/02 15:15:19;;;;;;;;;;;25.00;85.70;;;;;;5051066;28;20019;-73
2022/05/02 15:18:05;;;;;;;;;;;24.80;86.00;;;;;;5051777;28;19916;-72
2022/05/02 15:20:32;;;;;;;;;;;24.60;85.70;;;;;;5051545;28;20058;-72